Latest Weather Observations for Braidwood

IDN60801

Issued at 9:04 am EDT Tuesday 27 October 2020 (issued every 10 minutes, with the page automatically refreshed every 10 minutes)

About weather observations | Map of weather stations | Latest weather observations for NSW | Other Formats
Station Details ID: 069132 Name: BRAIDWOOD RACECOURSE AWS Lat: -35.43 Lon: 149.78 Height: 665.2 m
Data from the previous 72 hours. | See also: Recent months at Braidwood
Date/Time
EDT
Temp
°C
App
Temp
°C
Dew
Point
°C
Rel
Hum
%
Delta-T
°C
Wind Press
QNH
hPa
Press
MSL
hPa
Rain since
9am
mm
Dir  Spd
km/h
Gust
km/h
Spd
kts
Gust
kts
27/09:00am 8.6 4.5 7.7 94 0.4 S 19 24 10 13 1022.8 1022.0 9.4
27/08:30am 8.1 3.9 7.3 95 0.4 S 19 28 10 15 1022.8 1022.0 9.4
27/08:00am 7.8 3.5 7.1 95 0.3 S 19 28 10 15 1022.6 1021.8 9.4
27/07:30am 7.6 3.1 6.9 95 0.3 S 20 30 11 16 1022.3 1021.5 9.4
27/07:00am 7.3 2.7 6.6 95 0.3 S 20 26 11 14 1021.9 1021.2 9.4
27/06:30am 7.1 2.7 6.5 96 0.3 S 19 24 10 13 1021.6 1020.8 9.4
27/06:00am 7.0 2.9 6.4 96 0.3 S 17 24 9 13 1021.6 1020.8 9.4
27/05:30am 7.0 2.6 6.4 96 0.3 S 19 24 10 13 1021.5 1020.7 9.2
27/05:18am 7.1 2.7 6.5 96 0.3 S 19 28 10 15 1021.5 1020.7 9.2
27/05:15am 7.1 2.7 6.5 96 0.3 S 19 28 10 15 1021.5 1020.7 9.2
27/05:00am 7.0 2.6 6.4 96 0.3 S 19 28 10 15 1021.4 1020.6 9.2
27/04:30am 7.0 3.4 6.6 97 0.2 S 15 22 8 12 1021.3 1020.5 9.2
27/04:00am 7.0 3.0 6.6 97 0.2 S 17 26 9 14 1021.3 1020.5 9.2
27/03:30am 7.0 2.6 6.6 97 0.2 S 19 26 10 14 1021.2 1020.4 9.2
27/03:00am 7.0 2.6 6.4 96 0.3 S 19 24 10 13 1021.3 1020.5 9.2
27/02:51am 7.1 3.1 6.5 96 0.3 S 17 20 9 11 1021.4 1020.6 9.2
27/02:34am 7.1 3.1 6.5 96 0.3 S 17 24 9 13 1021.4 1020.6 9.2
27/02:30am 7.0 2.9 6.4 96 0.3 S 17 24 9 13 1021.4 1020.6 9.2
27/02:13am 7.0 2.6 6.4 96 0.3 S 19 24 10 13 1021.4 1020.6 9.2
27/02:02am 7.1 3.1 6.5 96 0.3 S 17 22 9 12 1021.4 1020.6 9.2
27/02:00am 7.1 3.1 6.5 96 0.3 S 17 22 9 12 1021.5 1020.7 9.2
27/01:30am 7.2 3.6 6.8 97 0.2 S 15 20 8 11 1021.9 1021.2 9.0
27/01:00am 7.2 4.0 6.8 97 0.2 SSE 13 17 7 9 1022.3 1021.5 9.0
27/12:30am 7.2 4.4 6.8 97 0.2 SSE 11 17 6 9 1022.5 1021.7 8.8
27/12:08am 7.2 3.6 6.6 96 0.3 SSE 15 19 8 10 1022.7 1021.9 8.6
27/12:00am 7.2 3.6 6.6 96 0.3 S 15 20 8 11 1022.7 1021.9 8.6
 
Date/Time
EDT
Temp
°C
App
Temp
°C
Dew
Point
°C
Rel
Hum
%
Delta-T
°C
Wind Press
QNH
hPa
Press
MSL
hPa
Rain since
9am
mm
Dir  Spd
km/h
Gust
km/h
Spd
kts
Gust
kts
26/11:42pm 7.1 3.4 6.4 95 0.3 S 15 22 8 12 1022.6 1021.8 8.6
26/11:30pm 7.0 3.3 6.3 95 0.3 SSE 15 20 8 11 1022.7 1021.9 8.6
26/11:00pm 7.2 2.8 6.6 96 0.3 SSE 19 26 10 14 1022.8 1022.0 8.4
26/10:30pm 7.4 3.8 6.7 95 0.3 S 15 22 8 12 1022.9 1022.1 8.2
26/10:29pm 7.4 3.8 6.7 95 0.3 S 15 22 8 12 1022.9 1022.1 8.2
26/10:00pm 7.3 3.6 6.1 92 0.6 S 15 20 8 11 1022.9 1022.1 8.2
26/09:40pm 7.7 4.4 6.3 91 0.7 SSE 13 20 7 11 1023.1 1022.3 8.2
26/09:30pm 7.6 4.3 6.4 92 0.6 SSE 13 19 7 10 1023.0 1022.2 8.2
26/09:29pm 7.6 4.3 6.4 92 0.6 SSE 13 17 7 9 1023.0 1022.2 8.2
26/09:18pm 7.3 3.6 6.1 92 0.6 SSE 15 22 8 12 1022.9 1022.1 8.2
26/09:08pm 7.4 3.7 6.2 92 0.6 SSE 15 22 8 12 1022.9 1022.1 8.2
26/09:00pm 7.6 3.5 6.1 90 0.7 SSE 17 22 9 12 1022.9 1022.1 8.2
26/08:30pm 7.5 4.2 6.4 93 0.5 SSE 13 20 7 11 1022.8 1022.0 8.2
26/08:00pm 7.6 4.2 6.1 90 0.7 SSE 13 20 7 11 1022.6 1021.8 8.2
26/07:30pm 7.7 3.6 6.2 90 0.7 SSE 17 32 9 17 1022.3 1021.5 8.2
26/07:27pm 7.7 3.6 6.2 90 0.7 SSE 17 24 9 13 1022.2 1021.4 8.2
26/07:00pm 7.8 4.6 6.9 94 0.4 SSE 13 20 7 11 1021.9 1021.2 8.2
26/06:49pm 8.0 4.4 6.8 92 0.6 SSE 15 24 8 13 1022.0 1021.3 7.8
26/06:30pm 8.6 5.1 7.1 90 0.7 SSE 15 22 8 12 1021.6 1020.8 7.8
26/06:00pm 8.5 3.8 6.1 85 1.1 SE 20 30 11 16 1021.5 1020.7 7.6
26/05:30pm 8.7 2.4 5.6 81 1.5 SE 28 43 15 23 1021.2 1020.4 7.6
26/05:00pm 9.0 3.0 7.1 88 0.9 SE 28 43 15 23 1020.9 1020.1 7.6
26/04:30pm 8.9 3.2 6.7 86 1.1 SE 26 37 14 20 1020.6 1019.7 7.6
26/04:00pm 10.7 4.6 6.5 75 2.0 SSE 28 44 15 24 1020.4 1019.6 7.6
26/03:45pm 9.5 3.3 6.2 80 1.6 SE 28 46 15 25 1020.4 1019.6 7.6
26/03:30pm 8.6 1.7 6.4 86 1.1 SE 32 43 17 23 1020.7 1019.9 7.6
26/03:16pm 9.7 3.7 7.0 83 1.3 SE 28 41 15 22 1020.6 1019.7 7.6
26/03:00pm 9.9 3.9 7.0 82 1.4 SE 28 43 15 23 1020.4 1019.6 7.6
26/02:41pm 9.8 3.8 7.1 83 1.3 SE 28 43 15 23 1020.7 1019.9 7.6
26/02:30pm 9.5 2.4 6.4 81 1.5 SE 33 50 18 27 1020.8 1020.0 7.6
26/02:19pm 9.5 3.2 7.3 86 1.1 SE 30 46 16 25 1021.0 1020.2 7.6
26/02:18pm 9.6 3.4 7.7 88 0.9 SE 30 46 16 25 1021.0 1020.2 7.6
26/02:00pm 9.4 3.3 6.8 84 1.3 SSE 28 39 15 21 1021.1 1020.3 7.6
26/01:30pm 9.0 3.0 7.1 88 0.9 SSE 28 46 15 25 1021.2 1020.4 7.6
26/01:00pm 8.8 3.2 7.3 90 0.7 SE 26 41 14 22 1021.5 1020.7 7.6
26/12:30pm 8.9 2.7 7.7 92 0.6 SSE 30 44 16 24 1021.5 1020.7 7.6
26/12:00pm 7.8 2.6 7.2 96 0.3 SSE 24 33 13 18 1022.0 1021.3 7.6
26/11:32am 7.3 2.7 6.7 96 0.3 S 20 28 11 15 1022.0 1021.3 6.6
26/11:30am 7.3 2.7 6.7 96 0.3 S 20 28 11 15 1022.2 1021.4 6.6
26/11:15am 7.3 2.0 6.9 97 0.2 SSE 24 35 13 19 1022.0 1021.3 6.2
26/11:05am 6.8 1.4 6.4 97 0.2 SSE 24 35 13 19 1021.8 1021.0 5.8
26/11:00am 6.6 0.7 6.0 96 0.3 S 26 37 14 20 1021.9 1021.2 5.8
26/10:30am 6.0 0.0 5.4 96 0.3 S 26 37 14 20 1021.9 1021.2 4.6
26/10:00am 6.2 0.6 5.3 94 0.4 S 24 35 13 19 1022.0 1021.3 0.6
26/09:30am 6.5 0.9 5.6 94 0.4 S 24 33 13 18 1021.7 1020.9 0.2
26/09:23am 6.5 0.9 5.5 93 0.5 S 24 35 13 19 1021.7 1020.9 0.2
26/09:06am 6.5 0.5 5.5 93 0.5 S 26 35 14 19 1021.6 1020.8 0.0
26/09:00am 6.6 0.7 5.6 93 0.5 S 26 35 14 19 1021.5 1020.7 10.8
26/08:30am 6.9 -0.1 5.8 93 0.5 S 32 43 17 23 1021.4 1020.6 10.8
26/08:00am 7.1 1.3 6.2 94 0.4 SSE 26 39 14 21 1021.5 1020.7 10.6
26/07:47am 7.2 1.4 6.3 94 0.4 SSE 26 33 14 18 1021.4 1020.6 10.4
26/07:30am 7.2 2.6 6.5 95 0.3 SSE 20 30 11 16 1021.4 1020.6 10.2
26/07:00am 7.0 2.4 6.3 95 0.3 SSE 20 28 11 15 1020.9 1020.1 9.6
26/06:30am 7.2 2.8 6.5 95 0.3 SSE 19 32 10 17 1020.6 1019.7 9.4
26/06:00am 7.3 2.3 6.6 95 0.3 SSE 22 30 12 16 1019.9 1019.1 8.8
26/05:30am 7.5 3.0 6.8 95 0.3 SE 20 32 11 17 1019.9 1019.1 8.2
26/05:25am 7.6 2.6 6.5 93 0.5 SE 22 33 12 18 1019.8 1019.0 8.0
26/05:11am 7.6 2.5 6.1 90 0.7 SE 22 35 12 19 1019.6 1018.8 8.0
26/05:00am 7.6 2.6 6.5 93 0.5 SE 22 33 12 18 1019.6 1018.8 8.0
26/04:46am 7.7 2.7 6.6 93 0.5 SE 22 33 12 18 1019.4 1018.6 7.8
26/04:30am 7.6 3.0 6.4 92 0.6 SE 20 30 11 16 1019.5 1018.7 7.6
26/04:01am 7.5 2.7 5.8 89 0.8 SE 20 37 11 20 1019.5 1018.7 7.4
26/04:00am 7.5 2.7 5.8 89 0.8 SE 20 37 11 20 1019.6 1018.8 7.4
26/03:33am 7.8 3.3 6.9 94 0.4 SE 20 30 11 16 1019.5 1018.7 7.4
26/03:30am 7.8 3.5 6.9 94 0.4 SE 19 30 10 16 1019.5 1018.7 7.4
26/03:05am 7.7 2.3 6.5 92 0.6 SE 24 33 13 18 1019.2 1018.3 6.8
26/03:00am 7.8 2.8 6.4 91 0.7 SE 22 33 12 18 1019.2 1018.3 6.8
26/02:41am 8.0 4.5 7.1 94 0.4 SE 15 28 8 15 1019.5 1018.7 6.6
26/02:30am 8.1 3.6 6.9 92 0.6 SE 20 37 11 20 1019.4 1018.6 6.2
26/02:00am 8.3 2.9 6.4 88 0.9 SE 24 39 13 21 1019.7 1018.9 5.8
26/01:30am 8.7 3.1 7.0 89 0.8 SE 26 41 14 22 1019.7 1018.9 5.4
26/01:00am 8.8 4.0 7.3 90 0.7 SE 22 35 12 19 1020.3 1019.5 5.2
26/12:30am 8.8 3.5 6.9 88 0.9 SE 24 35 13 19 1020.7 1019.9 4.6
26/12:00am 9.1 3.9 7.2 88 0.9 SE 24 37 13 20 1020.7 1019.9 4.2
 
Date/Time
EDT
Temp
°C
App
Temp
°C
Dew
Point
°C
Rel
Hum
%
Delta-T
°C
Wind Press
QNH
hPa
Press
MSL
hPa
Rain since
9am
mm
Dir  Spd
km/h
Gust
km/h
Spd
kts
Gust
kts
25/11:30pm 9.2 4.4 7.3 88 0.9 SE 22 35 12 19 1020.6 1019.7 3.8
25/11:00pm 9.0 4.2 7.3 89 0.8 SE 22 33 12 18 1020.9 1020.1 3.8
25/10:30pm 9.1 4.7 7.5 90 0.8 SE 20 32 11 17 1020.7 1019.9 3.6
25/10:00pm 8.9 4.8 7.8 93 0.5 SE 19 32 10 17 1020.6 1019.7 3.6
25/09:41pm 8.5 3.7 7.4 93 0.5 SE 22 30 12 16 1020.3 1019.5 3.4
25/09:30pm 8.6 4.8 7.7 94 0.4 SE 17 30 9 16 1020.3 1019.5 3.2
25/09:00pm 8.7 5.8 8.3 97 0.2 SSE 13 17 7 9 1019.8 1019.0 2.6
25/08:30pm 8.6 4.6 8.2 97 0.2 SSE 19 24 10 13 1019.5 1018.7 1.8
25/08:00pm 8.5 4.7 7.7 95 0.4 SSE 17 26 9 14 1019.1 1018.2 1.6
25/07:30pm 8.6 4.5 8.0 96 0.3 SSE 19 28 10 15 1018.8 1018.0 1.4
25/07:00pm 8.8 4.7 8.0 95 0.4 SSE 19 30 10 16 1018.2 1017.4 1.4
25/06:30pm 8.8 4.8 8.2 96 0.3 S 19 24 10 13 1017.7 1016.8 1.4
25/06:00pm 9.1 4.5 8.3 95 0.4 SSE 22 32 12 17 1017.1 1016.3 1.4
25/05:30pm 9.3 5.2 8.5 95 0.4 S 20 30 11 16 1016.8 1016.0 1.4
25/05:00pm 9.3 5.4 8.5 95 0.4 SSE 19 28 10 15 1016.6 1015.7 1.4
25/04:30pm 9.0 4.4 8.1 94 0.4 S 22 35 12 19 1016.4 1015.5 1.4
25/04:00pm 9.1 4.9 8.3 95 0.4 S 20 30 11 16 1016.1 1015.2 1.4
25/03:30pm 8.9 4.3 8.0 94 0.4 S 22 30 12 16 1016.0 1015.1 1.4
25/03:00pm 8.8 3.7 7.7 93 0.5 S 24 35 13 19 1016.0 1015.1 1.4
25/02:30pm 9.1 4.5 8.2 94 0.5 S 22 32 12 17 1016.0 1015.1 1.4
25/02:00pm 8.9 3.8 7.7 92 0.6 S 24 33 13 18 1016.2 1015.3 1.0
25/01:30pm 8.4 3.2 7.3 93 0.5 S 24 32 13 17 1016.0 1015.1 0.8
25/01:28pm 8.3 3.1 7.2 93 0.5 S 24 32 13 17 1016.0 1015.1 0.8
25/01:27pm 8.4 3.2 7.3 93 0.5 S 24 32 13 17 1016.0 1015.1 0.8
25/01:00pm 7.9 3.4 6.8 93 0.5 S 20 28 11 15 1016.3 1015.4 0.8
25/12:30pm 7.9 3.5 6.5 91 0.7 S 19 30 10 16 1016.1 1015.2 0.2
25/12:00pm 7.7 3.0 6.2 90 0.7 SSE 20 30 11 16 1016.0 1015.1 0.0
25/11:37am 7.8 2.8 6.4 91 0.7 SSE 22 30 12 16 1015.9 1015.0 0.0
25/11:30am 7.5 2.4 5.8 89 0.8 SSE 22 30 12 16 1016.0 1015.1 0.0
25/11:00am 7.4 2.6 5.5 88 0.9 S 20 28 11 15 1016.0 1015.1 0.0
25/10:30am 7.3 2.4 5.1 86 1.0 S 20 28 11 15 1016.0 1015.1 0.0
25/10:00am 6.8 2.1 5.3 90 0.7 SSE 19 28 10 15 1015.4 1014.6 0.0
25/09:30am 7.2 2.7 6.0 92 0.6 S 19 24 10 13 1015.1 1014.2 0.0
25/09:19am 6.9 2.3 5.5 91 0.6 S 19 24 10 13 1015.1 1014.2 0.0
25/09:00am 7.2 2.7 6.3 94 0.4 S 19 24 10 13 1014.9 1014.0 13.0
25/08:30am 7.1 1.7 6.4 95 0.3 S 24 32 13 17 1014.4 1013.5 13.0
25/08:00am 6.9 2.4 6.2 95 0.3 S 19 28 10 15 1013.8 1012.9 13.0
25/07:30am 7.8 3.9 7.2 96 0.3 SSE 17 22 9 12 1013.3 1012.4 13.0
25/07:00am 7.6 3.7 7.0 96 0.3 SSE 17 24 9 13 1012.6 1011.6 13.0
25/06:52am 7.8 4.7 7.2 96 0.3 SSE 13 20 7 11 1012.6 1011.6 13.0
25/06:30am 7.7 4.6 7.1 96 0.3 SSE 13 20 7 11 1012.0 1011.1 12.8
25/06:28am 7.7 4.6 7.1 96 0.3 SSE 13 20 7 11 1011.9 1011.0 12.8
25/06:00am 7.8 4.7 7.2 96 0.3 SSE 13 17 7 9 1011.3 1010.3 12.4
25/05:30am 8.0 5.3 7.4 96 0.3 SE 11 17 6 9 1010.7 1009.8 12.2
25/05:00am 8.3 5.7 7.9 97 0.2 SE 11 17 6 9 1010.3 1009.4 12.2
25/04:30am 8.5 6.4 8.1 97 0.2 SE 9 13 5 7 1009.8 1008.8 11.2
25/04:00am 9.0 7.4 8.7 98 0.2 SSE 7 11 4 6 1009.6 1008.6 10.4
25/03:30am 8.8 7.1 8.5 98 0.2 SSW 7 11 4 6 1009.1 1008.2 9.6
25/03:00am 9.0 7.4 8.6 97 0.2 SSW 7 9 4 5 1008.9 1008.0 9.0
25/02:30am 9.2 7.6 8.7 97 0.3 S 7 11 4 6 1008.7 1007.7 8.4
25/02:00am 9.2 7.6 8.6 96 0.3 SSW 7 13 4 7 1008.7 1007.7 8.2
25/01:30am 10.4 9.1 9.9 97 0.3 S 7 9 4 5 1008.6 1007.6 8.0
25/01:00am 10.1 8.3 9.6 97 0.3 SSE 9 13 5 7 1008.5 1007.5 8.0
25/12:30am 10.4 8.3 9.8 96 0.3 S 11 15 6 8 1008.4 1007.4 7.6
25/12:00am 10.8 9.6 10.3 97 0.3 SE 7 11 4 6 1008.4 1007.4 7.2
 
Date/Time
EDT
Temp
°C
App
Temp
°C
Dew
Point
°C
Rel
Hum
%
Delta-T
°C
Wind Press
QNH
hPa
Press
MSL
hPa
Rain since
9am
mm
Dir  Spd
km/h
Gust
km/h
Spd
kts
Gust
kts
24/11:30pm 11.0 9.5 10.4 96 0.3 SE 9 11 5 6 1008.2 1007.2 6.6
24/11:21pm 11.0 9.1 10.4 96 0.3 SE 11 15 6 8 1008.1 1007.1 6.6
24/11:03pm 10.9 8.9 10.1 95 0.4 ESE 11 17 6 9 1008.1 1007.1 6.6
24/11:00pm 11.0 9.0 10.2 95 0.4 ESE 11 15 6 8 1008.1 1007.1 6.6
24/10:30pm 11.2 9.3 10.4 95 0.4 SE 11 17 6 9 1007.9 1006.9 6.6
24/10:00pm 11.3 8.7 10.7 96 0.3 SE 15 22 8 12 1007.3 1006.3 6.6
24/09:30pm 11.4 7.5 10.8 96 0.3 ESE 22 30 12 16 1006.9 1005.9 6.4
24/09:00pm 11.8 7.5 10.9 94 0.5 ESE 24 33 13 18 1006.3 1005.3 6.4
24/08:30pm 13.1 10.4 11.8 92 0.7 ESE 17 24 9 13 1006.0 1005.0 6.4
24/08:00pm 14.7 14.2 13.7 94 0.6 E 9 15 5 8 1005.3 1004.3 5.0
24/07:30pm 15.9 16.1 14.3 90 0.9 E 6 19 3 10 1005.0 1004.0 2.2
24/07:25pm 16.7 17.7 15.4 92 0.8 ENE 4 6 2 3 1004.8 1003.7 2.2
24/07:00pm 16.7 17.6 15.2 91 0.9 NNE 4 6 2 3 1004.4 1003.4 2.2
24/06:30pm 16.9 18.6 15.1 89 1.1 CALM 0 4 0 2 1004.3 1003.3 2.2
24/06:00pm 16.9 18.0 14.7 87 1.3 N 2 7 1 4 1003.9 1002.9 2.0
24/05:30pm 17.1 17.7 15.4 90 1.0 N 6 9 3 5 1003.5 1002.4 2.0
24/05:00pm 16.8 18.0 15.0 89 1.1 NNE 2 4 1 2 1002.5 1001.5 2.0
24/04:30pm 16.8 17.1 14.6 87 1.3 NE 6 11 3 6 1002.1 1001.0 2.0
24/04:00pm 18.6 16.2 13.7 73 2.9 WNW 19 26 10 14 1003.4 1002.3 1.6
24/03:30pm 19.6 18.6 14.6 73 3.0 NW 13 20 7 11 1003.4 1002.3 1.6
24/03:00pm 20.2 18.7 15.2 73 3.1 WNW 17 26 9 14 1003.2 1002.1 1.6
24/02:30pm 19.6 18.0 15.0 75 2.8 NW 17 28 9 15 1003.1 1002.0 1.6
24/02:00pm 19.4 17.8 16.1 81 2.0 NW 19 32 10 17 1003.6 1002.5 1.6
24/01:30pm 17.2 17.0 15.7 91 0.9 NW 11 19 6 10 1004.0 1003.0 1.6
24/01:00pm 18.3 18.5 16.8 91 0.9 NW 11 20 6 11 1004.4 1003.4 1.4
24/12:30pm 16.9 15.8 15.4 91 0.9 NNW 15 28 8 15 1004.9 1003.8 1.2
24/12:00pm 17.3 15.4 15.3 88 1.2 NW 19 33 10 18 1005.3 1004.3 0.8
24/11:47am 17.4 15.9 15.4 88 1.2 NW 17 33 9 18 1005.2 1004.2 0.6
24/11:31am 17.5 16.5 15.7 89 1.1 NW 15 33 8 18 1005.3 1004.3 0.6
24/11:30am 17.6 16.7 15.9 90 1.0 NW 15 33 8 18 1005.3 1004.3 0.6
24/11:00am 18.1 15.9 15.0 82 1.9 NW 20 35 11 19 1005.4 1004.4 0.0
24/10:30am 19.1 17.0 15.2 78 2.4 NW 20 33 11 18 1005.5 1004.5 0.0
24/10:00am 19.8 18.3 15.2 75 2.8 NW 17 32 9 17 1005.5 1004.5 0.0
24/09:30am 19.9 18.9 15.5 76 2.7 NW 15 33 8 18 1005.3 1004.3 0.0

Other formats

Comma delimited format used in spreadsheet applications
http://www.bom.gov.au/fwo/IDN60801/IDN60801.94927.axf

JavaScript Object Notation format (JSON) in row-major order
http://www.bom.gov.au/fwo/IDN60801/IDN60801.94927.json

Data quality

Most of these data are generated automatically and are frequently updated. Quality checks on data are not normally performed. It is possible for incorrect values to appear. Refer to information at About Latest Weather Observations and please check the disclaimer before using these data.